sensor_id;sensor_type;location;lat;lon;timestamp;P1;durP1;ratioP1;P2;durP2;ratioP2
39522;SDS011;25202;51.216;6.806;2024-03-02T00:00:04;1.48;;;1.13;;
39522;SDS011;25202;51.216;6.806;2024-03-02T00:02:41;1.73;;;1.17;;
39522;SDS011;25202;51.216;6.806;2024-03-02T00:05:07;1.85;;;1.20;;
39522;SDS011;25202;51.216;6.806;2024-03-02T00:07:33;1.65;;;1.30;;
39522;SDS011;25202;51.216;6.806;2024-03-02T00:09:59;1.35;;;1.25;;
39522;SDS011;25202;51.216;6.806;2024-03-02T00:12:25;1.77;;;1.40;;
39522;SDS011;25202;51.216;6.806;2024-03-02T00:14:51;3.45;;;1.65;;
39522;SDS011;25202;51.216;6.806;2024-03-02T00:17:21;1.48;;;1.23;;
39522;SDS011;25202;51.216;6.806;2024-03-02T00:19:50;5.18;;;1.35;;
39522;SDS011;25202;51.216;6.806;2024-03-02T00:22:16;1.20;;;1.10;;
39522;SDS011;25202;51.216;6.806;2024-03-02T00:24:42;1.52;;;1.33;;
39522;SDS011;25202;51.216;6.806;2024-03-02T00:27:09;3.50;;;1.67;;
39522;SDS011;25202;51.216;6.806;2024-03-02T00:29:38;1.77;;;1.45;;
39522;SDS011;25202;51.216;6.806;2024-03-02T00:32:08;1.98;;;1.48;;
39522;SDS011;25202;51.216;6.806;2024-03-02T00:34:38;1.80;;;1.30;;
39522;SDS011;25202;51.216;6.806;2024-03-02T00:37:03;1.63;;;1.30;;
39522;SDS011;25202;51.216;6.806;2024-03-02T00:39:29;2.05;;;1.40;;
39522;SDS011;25202;51.216;6.806;2024-03-02T00:41:54;1.88;;;1.30;;
39522;SDS011;25202;51.216;6.806;2024-03-02T00:44:20;1.98;;;1.50;;
39522;SDS011;25202;51.216;6.806;2024-03-02T00:46:50;1.60;;;1.23;;
39522;SDS011;25202;51.216;6.806;2024-03-02T00:49:22;2.00;;;1.50;;
39522;SDS011;25202;51.216;6.806;2024-03-02T00:51:49;1.50;;;1.10;;
39522;SDS011;25202;51.216;6.806;2024-03-02T00:54:23;1.27;;;1.15;;
39522;SDS011;25202;51.216;6.806;2024-03-02T00:56:51;1.90;;;1.30;;
39522;SDS011;25202;51.216;6.806;2024-03-02T00:59:17;1.88;;;1.30;;
39522;SDS011;25202;51.216;6.806;2024-03-02T01:01:43;1.42;;;1.15;;
39522;SDS011;25202;51.216;6.806;2024-03-02T01:04:08;1.45;;;1.17;;
39522;SDS011;25202;51.216;6.806;2024-03-02T01:06:34;1.83;;;1.00;;
39522;SDS011;25202;51.216;6.806;2024-03-02T01:09:00;1.52;;;1.23;;
39522;SDS011;25202;51.216;6.806;2024-03-02T01:11:26;1.52;;;1.20;;
39522;SDS011;25202;51.216;6.806;2024-03-02T01:13:51;1.23;;;1.00;;
39522;SDS011;25202;51.216;6.806;2024-03-02T01:16:17;1.80;;;1.30;;
39522;SDS011;25202;51.216;6.806;2024-03-02T01:18:43;1.98;;;1.15;;
39522;SDS011;25202;51.216;6.806;2024-03-02T01:21:08;2.05;;;1.23;;
39522;SDS011;25202;51.216;6.806;2024-03-02T01:23:34;1.85;;;1.20;;
39522;SDS011;25202;51.216;6.806;2024-03-02T01:25:59;1.85;;;1.05;;
39522;SDS011;25202;51.216;6.806;2024-03-02T01:28:25;1.55;;;1.13;;
39522;SDS011;25202;51.216;6.806;2024-03-02T01:30:50;1.40;;;1.20;;
39522;SDS011;25202;51.216;6.806;2024-03-02T01:33:16;1.58;;;1.20;;
39522;SDS011;25202;51.216;6.806;2024-03-02T01:35:43;2.63;;;1.35;;
39522;SDS011;25202;51.216;6.806;2024-03-02T01:38:08;3.83;;;1.45;;
39522;SDS011;25202;51.216;6.806;2024-03-02T01:40:34;1.75;;;1.30;;
39522;SDS011;25202;51.216;6.806;2024-03-02T01:43:00;1.30;;;1.20;;
39522;SDS011;25202;51.216;6.806;2024-03-02T01:45:27;1.67;;;1.30;;
39522;SDS011;25202;51.216;6.806;2024-03-02T01:47:53;1.67;;;1.48;;
39522;SDS011;25202;51.216;6.806;2024-03-02T01:50:25;1.65;;;1.30;;
39522;SDS011;25202;51.216;6.806;2024-03-02T01:52:51;1.52;;;1.20;;
39522;SDS011;25202;51.216;6.806;2024-03-02T01:55:17;3.33;;;1.45;;
39522;SDS011;25202;51.216;6.806;2024-03-02T01:57:42;1.55;;;1.33;;
39522;SDS011;25202;51.216;6.806;2024-03-02T02:00:10;1.85;;;1.30;;
39522;SDS011;25202;51.216;6.806;2024-03-02T02:02:38;1.77;;;1.38;;
39522;SDS011;25202;51.216;6.806;2024-03-02T02:05:04;1.42;;;1.30;;
39522;SDS011;25202;51.216;6.806;2024-03-02T02:07:29;1.58;;;1.30;;
39522;SDS011;25202;51.216;6.806;2024-03-02T02:09:56;1.95;;;1.30;;
39522;SDS011;25202;51.216;6.806;2024-03-02T02:12:21;2.15;;;1.20;;
39522;SDS011;25202;51.216;6.806;2024-03-02T02:14:47;2.00;;;1.60;;
39522;SDS011;25202;51.216;6.806;2024-03-02T02:17:14;1.30;;;1.10;;
39522;SDS011;25202;51.216;6.806;2024-03-02T02:19:40;1.40;;;1.30;;
39522;SDS011;25202;51.216;6.806;2024-03-02T02:22:06;1.30;;;1.20;;
39522;SDS011;25202;51.216;6.806;2024-03-02T02:24:31;1.95;;;1.33;;
39522;SDS011;25202;51.216;6.806;2024-03-02T02:26:57;1.42;;;1.23;;
39522;SDS011;25202;51.216;6.806;2024-03-02T02:29:22;1.73;;;1.20;;
39522;SDS011;25202;51.216;6.806;2024-03-02T02:31:48;1.30;;;1.20;;
39522;SDS011;25202;51.216;6.806;2024-03-02T02:34:14;2.08;;;1.20;;
39522;SDS011;25202;51.216;6.806;2024-03-02T02:36:39;1.58;;;1.20;;
39522;SDS011;25202;51.216;6.806;2024-03-02T02:39:05;2.90;;;1.58;;
39522;SDS011;25202;51.216;6.806;2024-03-02T02:41:32;1.90;;;1.30;;
39522;SDS011;25202;51.216;6.806;2024-03-02T02:43:58;1.42;;;1.15;;
39522;SDS011;25202;51.216;6.806;2024-03-02T02:46:23;1.00;;;0.95;;
39522;SDS011;25202;51.216;6.806;2024-03-02T02:48:49;1.73;;;1.30;;
39522;SDS011;25202;51.216;6.806;2024-03-02T02:51:16;1.38;;;1.15;;
39522;SDS011;25202;51.216;6.806;2024-03-02T02:53:42;1.20;;;1.00;;
39522;SDS011;25202;51.216;6.806;2024-03-02T02:56:08;1.58;;;1.40;;
39522;SDS011;25202;51.216;6.806;2024-03-02T02:58:34;3.00;;;1.23;;
39522;SDS011;25202;51.216;6.806;2024-03-02T03:01:00;1.10;;;1.00;;
39522;SDS011;25202;51.216;6.806;2024-03-02T03:03:26;1.73;;;1.17;;
39522;SDS011;25202;51.216;6.806;2024-03-02T03:05:51;1.58;;;1.20;;
39522;SDS011;25202;51.216;6.806;2024-03-02T03:08:17;2.53;;;1.42;;
39522;SDS011;25202;51.216;6.806;2024-03-02T03:10:42;1.45;;;1.35;;
39522;SDS011;25202;51.216;6.806;2024-03-02T03:13:08;1.77;;;1.45;;
39522;SDS011;25202;51.216;6.806;2024-03-02T03:15:34;1.73;;;1.20;;
39522;SDS011;25202;51.216;6.806;2024-03-02T03:18:01;2.35;;;1.20;;
39522;SDS011;25202;51.216;6.806;2024-03-02T03:20:29;1.25;;;1.15;;
39522;SDS011;25202;51.216;6.806;2024-03-02T03:22:55;1.10;;;1.00;;
39522;SDS011;25202;51.216;6.806;2024-03-02T03:25:21;2.05;;;1.30;;
39522;SDS011;25202;51.216;6.806;2024-03-02T03:27:46;1.55;;;1.20;;
39522;SDS011;25202;51.216;6.806;2024-03-02T03:30:12;2.38;;;1.60;;
39522;SDS011;25202;51.216;6.806;2024-03-02T03:32:38;1.70;;;1.20;;
39522;SDS011;25202;51.216;6.806;2024-03-02T03:35:04;1.10;;;1.00;;
39522;SDS011;25202;51.216;6.806;2024-03-02T03:37:30;1.77;;;1.20;;
39522;SDS011;25202;51.216;6.806;2024-03-02T03:39:58;1.40;;;1.30;;
39522;SDS011;25202;51.216;6.806;2024-03-02T03:42:24;1.67;;;1.33;;
39522;SDS011;25202;51.216;6.806;2024-03-02T03:44:50;1.48;;;1.17;;
39522;SDS011;25202;51.216;6.806;2024-03-02T03:47:15;2.53;;;1.30;;
39522;SDS011;25202;51.216;6.806;2024-03-02T03:49:41;1.70;;;1.27;;
39522;SDS011;25202;51.216;6.806;2024-03-02T03:52:06;1.77;;;1.30;;
39522;SDS011;25202;51.216;6.806;2024-03-02T03:54:32;1.30;;;1.20;;
39522;SDS011;25202;51.216;6.806;2024-03-02T03:56:57;1.45;;;1.10;;
39522;SDS011;25202;51.216;6.806;2024-03-02T03:59:23;1.67;;;1.20;;
39522;SDS011;25202;51.216;6.806;2024-03-02T04:01:49;1.13;;;1.00;;
39522;SDS011;25202;51.216;6.806;2024-03-02T04:04:14;1.30;;;1.00;;
39522;SDS011;25202;51.216;6.806;2024-03-02T04:06:40;1.70;;;1.20;;
39522;SDS011;25202;51.216;6.806;2024-03-02T04:09:05;1.88;;;1.33;;
39522;SDS011;25202;51.216;6.806;2024-03-02T04:11:31;1.33;;;1.23;;
39522;SDS011;25202;51.216;6.806;2024-03-02T04:13:56;1.70;;;1.30;;
39522;SDS011;25202;51.216;6.806;2024-03-02T04:16:22;1.30;;;1.10;;
39522;SDS011;25202;51.216;6.806;2024-03-02T04:18:48;1.75;;;1.23;;
39522;SDS011;25202;51.216;6.806;2024-03-02T04:21:13;1.45;;;1.20;;
39522;SDS011;25202;51.216;6.806;2024-03-02T04:23:39;2.10;;;1.30;;
39522;SDS011;25202;51.216;6.806;2024-03-02T04:26:04;2.03;;;1.17;;
39522;SDS011;25202;51.216;6.806;2024-03-02T04:28:30;1.42;;;1.20;;
39522;SDS011;25202;51.216;6.806;2024-03-02T04:30:55;3.65;;;1.42;;
39522;SDS011;25202;51.216;6.806;2024-03-02T04:33:21;1.98;;;1.10;;
39522;SDS011;25202;51.216;6.806;2024-03-02T04:35:46;1.23;;;1.10;;
39522;SDS011;25202;51.216;6.806;2024-03-02T04:38:12;1.55;;;1.20;;
39522;SDS011;25202;51.216;6.806;2024-03-02T04:40:37;1.58;;;1.30;;
39522;SDS011;25202;51.216;6.806;2024-03-02T04:43:03;1.55;;;1.23;;
39522;SDS011;25202;51.216;6.806;2024-03-02T04:45:28;1.48;;;1.15;;
39522;SDS011;25202;51.216;6.806;2024-03-02T04:47:54;1.98;;;1.30;;
39522;SDS011;25202;51.216;6.806;2024-03-02T04:50:19;1.95;;;1.20;;
39522;SDS011;25202;51.216;6.806;2024-03-02T04:52:45;1.77;;;1.20;;
39522;SDS011;25202;51.216;6.806;2024-03-02T04:55:10;1.42;;;1.20;;
39522;SDS011;25202;51.216;6.806;2024-03-02T04:57:39;1.58;;;1.25;;
39522;SDS011;25202;51.216;6.806;2024-03-02T05:00:05;1.75;;;1.27;;
39522;SDS011;25202;51.216;6.806;2024-03-02T05:02:32;2.97;;;0.98;;
39522;SDS011;25202;51.216;6.806;2024-03-02T05:04:57;1.77;;;1.30;;
39522;SDS011;25202;51.216;6.806;2024-03-02T05:07:23;1.70;;;1.15;;
39522;SDS011;25202;51.216;6.806;2024-03-02T05:09:48;1.40;;;1.30;;
39522;SDS011;25202;51.216;6.806;2024-03-02T05:12:14;1.27;;;1.17;;
39522;SDS011;25202;51.216;6.806;2024-03-02T05:14:58;1.88;;;1.38;;
39522;SDS011;25202;51.216;6.806;2024-03-02T05:17:23;1.27;;;1.15;;
39522;SDS011;25202;51.216;6.806;2024-03-02T05:19:49;1.58;;;1.40;;
39522;SDS011;25202;51.216;6.806;2024-03-02T05:22:14;1.95;;;0.95;;
39522;SDS011;25202;51.216;6.806;2024-03-02T05:24:40;1.65;;;1.30;;
39522;SDS011;25202;51.216;6.806;2024-03-02T05:27:05;1.85;;;1.20;;
39522;SDS011;25202;51.216;6.806;2024-03-02T05:29:32;1.73;;;1.20;;
39522;SDS011;25202;51.216;6.806;2024-03-02T05:31:58;1.67;;;1.20;;
39522;SDS011;25202;51.216;6.806;2024-03-02T05:34:23;1.73;;;1.10;;
39522;SDS011;25202;51.216;6.806;2024-03-02T05:36:49;2.05;;;1.08;;
39522;SDS011;25202;51.216;6.806;2024-03-02T05:39:14;1.75;;;1.17;;
39522;SDS011;25202;51.216;6.806;2024-03-02T05:41:40;2.65;;;1.40;;
39522;SDS011;25202;51.216;6.806;2024-03-02T05:44:06;1.40;;;1.30;;
39522;SDS011;25202;51.216;6.806;2024-03-02T05:46:32;1.52;;;1.25;;
39522;SDS011;25202;51.216;6.806;2024-03-02T05:48:58;1.35;;;1.00;;
39522;SDS011;25202;51.216;6.806;2024-03-02T05:51:26;3.78;;;1.33;;
39522;SDS011;25202;51.216;6.806;2024-03-02T05:53:52;1.70;;;1.25;;
39522;SDS011;25202;51.216;6.806;2024-03-02T05:56:17;0.98;;;0.80;;
39522;SDS011;25202;51.216;6.806;2024-03-02T05:58:43;1.45;;;1.20;;
39522;SDS011;25202;51.216;6.806;2024-03-02T06:01:26;1.38;;;1.20;;
39522;SDS011;25202;51.216;6.806;2024-03-02T06:03:56;2.65;;;1.40;;
39522;SDS011;25202;51.216;6.806;2024-03-02T06:06:25;1.30;;;1.08;;
39522;SDS011;25202;51.216;6.806;2024-03-02T06:08:50;4.15;;;1.10;;
39522;SDS011;25202;51.216;6.806;2024-03-02T06:11:17;1.42;;;1.10;;
39522;SDS011;25202;51.216;6.806;2024-03-02T06:13:42;1.40;;;1.13;;
39522;SDS011;25202;51.216;6.806;2024-03-02T06:16:08;1.33;;;1.10;;
39522;SDS011;25202;51.216;6.806;2024-03-02T06:18:33;1.13;;;0.93;;
39522;SDS011;25202;51.216;6.806;2024-03-02T06:20:59;1.60;;;1.27;;
39522;SDS011;25202;51.216;6.806;2024-03-02T06:23:26;1.05;;;0.80;;
39522;SDS011;25202;51.216;6.806;2024-03-02T06:25:52;1.35;;;1.05;;
39522;SDS011;25202;51.216;6.806;2024-03-02T06:28:17;2.10;;;1.00;;
39522;SDS011;25202;51.216;6.806;2024-03-02T06:30:43;1.30;;;1.10;;
39522;SDS011;25202;51.216;6.806;2024-03-02T06:33:09;1.58;;;1.10;;
39522;SDS011;25202;51.216;6.806;2024-03-02T06:35:34;2.63;;;1.30;;
39522;SDS011;25202;51.216;6.806;2024-03-02T06:38:00;1.98;;;1.15;;
39522;SDS011;25202;51.216;6.806;2024-03-02T06:40:26;1.52;;;1.00;;
39522;SDS011;25202;51.216;6.806;2024-03-02T06:42:52;1.40;;;1.05;;
39522;SDS011;25202;51.216;6.806;2024-03-02T06:45:17;2.10;;;1.23;;
39522;SDS011;25202;51.216;6.806;2024-03-02T06:47:43;1.48;;;1.10;;
39522;SDS011;25202;51.216;6.806;2024-03-02T06:50:08;1.50;;;1.08;;
39522;SDS011;25202;51.216;6.806;2024-03-02T06:52:34;1.17;;;1.05;;
39522;SDS011;25202;51.216;6.806;2024-03-02T06:55:00;1.23;;;0.90;;
39522;SDS011;25202;51.216;6.806;2024-03-02T06:57:26;1.23;;;1.00;;
39522;SDS011;25202;51.216;6.806;2024-03-02T06:59:51;1.27;;;1.17;;
39522;SDS011;25202;51.216;6.806;2024-03-02T07:02:20;1.25;;;1.00;;
39522;SDS011;25202;51.216;6.806;2024-03-02T07:04:46;1.05;;;0.90;;
39522;SDS011;25202;51.216;6.806;2024-03-02T07:07:12;2.20;;;1.15;;
39522;SDS011;25202;51.216;6.806;2024-03-02T07:09:37;2.33;;;1.00;;
39522;SDS011;25202;51.216;6.806;2024-03-02T07:12:03;3.20;;;1.13;;
39522;SDS011;25202;51.216;6.806;2024-03-02T07:14:29;1.38;;;1.15;;
39522;SDS011;25202;51.216;6.806;2024-03-02T07:17:13;2.03;;;1.20;;
39522;SDS011;25202;51.216;6.806;2024-03-02T07:19:39;1.25;;;1.00;;
39522;SDS011;25202;51.216;6.806;2024-03-02T07:22:08;1.15;;;1.00;;
39522;SDS011;25202;51.216;6.806;2024-03-02T07:24:39;1.13;;;0.85;;
39522;SDS011;25202;51.216;6.806;2024-03-02T07:27:08;1.00;;;0.80;;
39522;SDS011;25202;51.216;6.806;2024-03-02T07:29:34;1.55;;;1.00;;
39522;SDS011;25202;51.216;6.806;2024-03-02T07:31:59;1.02;;;0.98;;
39522;SDS011;25202;51.216;6.806;2024-03-02T07:34:25;1.02;;;0.90;;
39522;SDS011;25202;51.216;6.806;2024-03-02T07:36:50;1.58;;;1.00;;
39522;SDS011;25202;51.216;6.806;2024-03-02T07:39:16;1.20;;;0.90;;
39522;SDS011;25202;51.216;6.806;2024-03-02T07:41:42;0.98;;;0.88;;
39522;SDS011;25202;51.216;6.806;2024-03-02T07:44:07;1.17;;;1.00;;
39522;SDS011;25202;51.216;6.806;2024-03-02T07:46:33;1.83;;;0.90;;
39522;SDS011;25202;51.216;6.806;2024-03-02T07:48:58;1.30;;;0.90;;
39522;SDS011;25202;51.216;6.806;2024-03-02T07:51:24;1.52;;;0.90;;
39522;SDS011;25202;51.216;6.806;2024-03-02T07:53:49;2.55;;;1.05;;
39522;SDS011;25202;51.216;6.806;2024-03-02T07:56:15;1.30;;;0.82;;
39522;SDS011;25202;51.216;6.806;2024-03-02T07:58:47;0.85;;;0.70;;
39522;SDS011;25202;51.216;6.806;2024-03-02T08:01:14;1.15;;;0.98;;
39522;SDS011;25202;51.216;6.806;2024-03-02T08:03:40;1.35;;;0.85;;
39522;SDS011;25202;51.216;6.806;2024-03-02T08:06:06;1.17;;;1.00;;
39522;SDS011;25202;51.216;6.806;2024-03-02T08:08:31;1.20;;;0.93;;
39522;SDS011;25202;51.216;6.806;2024-03-02T08:10:57;1.08;;;0.98;;
39522;SDS011;25202;51.216;6.806;2024-03-02T08:13:22;1.02;;;0.88;;
39522;SDS011;25202;51.216;6.806;2024-03-02T08:15:48;0.95;;;0.90;;
39522;SDS011;25202;51.216;6.806;2024-03-02T08:18:13;0.80;;;0.80;;
39522;SDS011;25202;51.216;6.806;2024-03-02T08:20:39;1.20;;;1.00;;
39522;SDS011;25202;51.216;6.806;2024-03-02T08:23:06;1.00;;;0.80;;
39522;SDS011;25202;51.216;6.806;2024-03-02T08:25:31;2.38;;;0.70;;
39522;SDS011;25202;51.216;6.806;2024-03-02T08:27:57;0.77;;;0.77;;
39522;SDS011;25202;51.216;6.806;2024-03-02T08:30:23;1.30;;;0.93;;
39522;SDS011;25202;51.216;6.806;2024-03-02T08:32:48;1.83;;;0.93;;
39522;SDS011;25202;51.216;6.806;2024-03-02T08:35:14;1.08;;;0.80;;
39522;SDS011;25202;51.216;6.806;2024-03-02T08:37:40;1.08;;;0.70;;
39522;SDS011;25202;51.216;6.806;2024-03-02T08:40:07;1.08;;;0.77;;
39522;SDS011;25202;51.216;6.806;2024-03-02T08:42:33;1.40;;;0.80;;
39522;SDS011;25202;51.216;6.806;2024-03-02T08:44:59;1.20;;;0.77;;
39522;SDS011;25202;51.216;6.806;2024-03-02T08:47:26;3.00;;;0.98;;
39522;SDS011;25202;51.216;6.806;2024-03-02T08:49:52;0.95;;;0.80;;
39522;SDS011;25202;51.216;6.806;2024-03-02T08:52:18;1.17;;;0.90;;
39522;SDS011;25202;51.216;6.806;2024-03-02T08:54:43;0.98;;;0.75;;
39522;SDS011;25202;51.216;6.806;2024-03-02T08:57:09;0.80;;;0.80;;
39522;SDS011;25202;51.216;6.806;2024-03-02T08:59:34;1.15;;;0.88;;
39522;SDS011;25202;51.216;6.806;2024-03-02T09:02:00;0.93;;;0.77;;
39522;SDS011;25202;51.216;6.806;2024-03-02T09:04:26;0.75;;;0.75;;
39522;SDS011;25202;51.216;6.806;2024-03-02T09:06:51;1.17;;;1.08;;
39522;SDS011;25202;51.216;6.806;2024-03-02T09:09:17;1.30;;;0.80;;
39522;SDS011;25202;51.216;6.806;2024-03-02T09:11:42;1.00;;;0.80;;
39522;SDS011;25202;51.216;6.806;2024-03-02T09:14:08;0.77;;;0.73;;
39522;SDS011;25202;51.216;6.806;2024-03-02T09:16:33;1.20;;;0.70;;
39522;SDS011;25202;51.216;6.806;2024-03-02T09:18:59;1.20;;;0.80;;
39522;SDS011;25202;51.216;6.806;2024-03-02T09:21:25;1.42;;;0.88;;
39522;SDS011;25202;51.216;6.806;2024-03-02T09:23:51;0.98;;;0.65;;
39522;SDS011;25202;51.216;6.806;2024-03-02T09:26:16;0.68;;;0.60;;
39522;SDS011;25202;51.216;6.806;2024-03-02T09:28:43;1.05;;;0.90;;
39522;SDS011;25202;51.216;6.806;2024-03-02T09:31:09;1.10;;;0.70;;
39522;SDS011;25202;51.216;6.806;2024-03-02T09:33:34;2.67;;;0.80;;
39522;SDS011;25202;51.216;6.806;2024-03-02T09:36:00;0.98;;;0.90;;
39522;SDS011;25202;51.216;6.806;2024-03-02T09:38:25;1.00;;;0.80;;
39522;SDS011;25202;51.216;6.806;2024-03-02T09:40:51;1.08;;;0.90;;
39522;SDS011;25202;51.216;6.806;2024-03-02T09:43:16;1.00;;;0.80;;
39522;SDS011;25202;51.216;6.806;2024-03-02T09:45:42;0.70;;;0.70;;
39522;SDS011;25202;51.216;6.806;2024-03-02T09:48:08;1.55;;;0.88;;
39522;SDS011;25202;51.216;6.806;2024-03-02T09:50:34;0.70;;;0.70;;
39522;SDS011;25202;51.216;6.806;2024-03-02T09:52:59;0.93;;;0.70;;
39522;SDS011;25202;51.216;6.806;2024-03-02T09:55:24;1.30;;;0.90;;
39522;SDS011;25202;51.216;6.806;2024-03-02T09:57:50;1.17;;;1.00;;
39522;SDS011;25202;51.216;6.806;2024-03-02T10:00:16;2.70;;;0.77;;
39522;SDS011;25202;51.216;6.806;2024-03-02T10:02:42;0.90;;;0.70;;
39522;SDS011;25202;51.216;6.806;2024-03-02T10:05:11;0.88;;;0.82;;
39522;SDS011;25202;51.216;6.806;2024-03-02T10:07:37;1.30;;;0.70;;
39522;SDS011;25202;51.216;6.806;2024-03-02T10:10:15;0.90;;;0.65;;
39522;SDS011;25202;51.216;6.806;2024-03-02T10:12:41;0.57;;;0.57;;
39522;SDS011;25202;51.216;6.806;2024-03-02T10:15:07;1.33;;;0.82;;
39522;SDS011;25202;51.216;6.806;2024-03-02T10:17:34;3.03;;;0.77;;
39522;SDS011;25202;51.216;6.806;2024-03-02T10:19:59;0.95;;;0.77;;
39522;SDS011;25202;51.216;6.806;2024-03-02T10:22:48;0.70;;;0.68;;
39522;SDS011;25202;51.216;6.806;2024-03-02T10:25:28;0.95;;;0.70;;
39522;SDS011;25202;51.216;6.806;2024-03-02T10:27:57;1.65;;;0.93;;
39522;SDS011;25202;51.216;6.806;2024-03-02T10:30:26;2.03;;;1.00;;
39522;SDS011;25202;51.216;6.806;2024-03-02T10:32:55;1.05;;;0.77;;
39522;SDS011;25202;51.216;6.806;2024-03-02T10:35:21;0.85;;;0.65;;
39522;SDS011;25202;51.216;6.806;2024-03-02T10:37:48;1.38;;;0.95;;
39522;SDS011;25202;51.216;6.806;2024-03-02T10:40:14;0.65;;;0.60;;
39522;SDS011;25202;51.216;6.806;2024-03-02T10:42:40;0.70;;;0.65;;
39522;SDS011;25202;51.216;6.806;2024-03-02T10:45:06;0.70;;;0.70;;
39522;SDS011;25202;51.216;6.806;2024-03-02T10:47:35;1.05;;;0.90;;
39522;SDS011;25202;51.216;6.806;2024-03-02T10:50:01;1.02;;;0.77;;
39522;SDS011;25202;51.216;6.806;2024-03-02T10:52:31;0.88;;;0.70;;
39522;SDS011;25202;51.216;6.806;2024-03-02T10:54:56;0.85;;;0.70;;
39522;SDS011;25202;51.216;6.806;2024-03-02T10:57:22;1.35;;;0.75;;
39522;SDS011;25202;51.216;6.806;2024-03-02T10:59:55;0.73;;;0.60;;
39522;SDS011;25202;51.216;6.806;2024-03-02T11:02:22;1.67;;;0.80;;
39522;SDS011;25202;51.216;6.806;2024-03-02T11:04:49;1.23;;;0.60;;
39522;SDS011;25202;51.216;6.806;2024-03-02T11:07:15;1.67;;;0.88;;
39522;SDS011;25202;51.216;6.806;2024-03-02T11:09:45;1.67;;;0.77;;
39522;SDS011;25202;51.216;6.806;2024-03-02T11:12:39;0.82;;;0.70;;
39522;SDS011;25202;51.216;6.806;2024-03-02T11:15:30;0.95;;;0.80;;
39522;SDS011;25202;51.216;6.806;2024-03-02T11:17:55;0.95;;;0.73;;
39522;SDS011;25202;51.216;6.806;2024-03-02T11:20:22;1.15;;;0.55;;
39522;SDS011;25202;51.216;6.806;2024-03-02T11:22:47;0.70;;;0.70;;
39522;SDS011;25202;51.216;6.806;2024-03-02T11:25:22;0.68;;;0.60;;
39522;SDS011;25202;51.216;6.806;2024-03-02T11:32:58;1.20;;;0.80;;
39522;SDS011;25202;51.216;6.806;2024-03-02T11:35:33;0.70;;;0.60;;
39522;SDS011;25202;51.216;6.806;2024-03-02T11:38:00;0.82;;;0.63;;
39522;SDS011;25202;51.216;6.806;2024-03-02T11:40:26;1.45;;;0.70;;
39522;SDS011;25202;51.216;6.806;2024-03-02T11:42:56;0.82;;;0.52;;
39522;SDS011;25202;51.216;6.806;2024-03-02T11:45:22;1.90;;;0.80;;
39522;SDS011;25202;51.216;6.806;2024-03-02T11:47:51;0.82;;;0.70;;
39522;SDS011;25202;51.216;6.806;2024-03-02T11:52:55;0.60;;;0.60;;
39522;SDS011;25202;51.216;6.806;2024-03-02T11:55:22;0.70;;;0.68;;
39522;SDS011;25202;51.216;6.806;2024-03-02T11:57:48;0.75;;;0.60;;
39522;SDS011;25202;51.216;6.806;2024-03-02T12:00:17;0.50;;;0.50;;
39522;SDS011;25202;51.216;6.806;2024-03-02T12:02:43;1.95;;;0.88;;
39522;SDS011;25202;51.216;6.806;2024-03-02T12:05:12;1.00;;;0.60;;
39522;SDS011;25202;51.216;6.806;2024-03-02T12:07:38;1.13;;;0.82;;
39522;SDS011;25202;51.216;6.806;2024-03-02T12:10:04;0.80;;;0.60;;
39522;SDS011;25202;51.216;6.806;2024-03-02T12:12:30;0.75;;;0.60;;
39522;SDS011;25202;51.216;6.806;2024-03-02T12:14:56;0.60;;;0.60;;
39522;SDS011;25202;51.216;6.806;2024-03-02T12:17:22;0.63;;;0.60;;
39522;SDS011;25202;51.216;6.806;2024-03-02T12:19:48;0.98;;;0.88;;
39522;SDS011;25202;51.216;6.806;2024-03-02T12:22:14;1.08;;;0.60;;
39522;SDS011;25202;51.216;6.806;2024-03-02T12:24:41;0.85;;;0.70;;
39522;SDS011;25202;51.216;6.806;2024-03-02T12:27:07;0.80;;;0.60;;
39522;SDS011;25202;51.216;6.806;2024-03-02T12:29:32;0.65;;;0.65;;
39522;SDS011;25202;51.216;6.806;2024-03-02T12:31:58;0.65;;;0.63;;
39522;SDS011;25202;51.216;6.806;2024-03-02T12:34:24;1.10;;;0.60;;
39522;SDS011;25202;51.216;6.806;2024-03-02T12:36:51;2.35;;;0.50;;
39522;SDS011;25202;51.216;6.806;2024-03-02T12:39:21;0.60;;;0.57;;
39522;SDS011;25202;51.216;6.806;2024-03-02T12:41:48;0.50;;;0.45;;
39522;SDS011;25202;51.216;6.806;2024-03-02T12:44:15;0.75;;;0.70;;
39522;SDS011;25202;51.216;6.806;2024-03-02T12:46:41;0.65;;;0.57;;
39522;SDS011;25202;51.216;6.806;2024-03-02T12:49:14;0.75;;;0.70;;
39522;SDS011;25202;51.216;6.806;2024-03-02T12:51:45;0.52;;;0.45;;
39522;SDS011;25202;51.216;6.806;2024-03-02T12:54:16;1.38;;;0.70;;
39522;SDS011;25202;51.216;6.806;2024-03-02T12:56:42;0.88;;;0.65;;
39522;SDS011;25202;51.216;6.806;2024-03-02T12:59:17;0.68;;;0.50;;
39522;SDS011;25202;51.216;6.806;2024-03-02T13:01:53;0.75;;;0.60;;
39522;SDS011;25202;51.216;6.806;2024-03-02T13:04:26;1.10;;;0.77;;
39522;SDS011;25202;51.216;6.806;2024-03-02T13:06:53;1.08;;;0.70;;
39522;SDS011;25202;51.216;6.806;2024-03-02T13:09:21;0.73;;;0.60;;
39522;SDS011;25202;51.216;6.806;2024-03-02T13:11:47;0.68;;;0.60;;
39522;SDS011;25202;51.216;6.806;2024-03-02T13:14:12;0.85;;;0.60;;
39522;SDS011;25202;51.216;6.806;2024-03-02T13:16:39;0.80;;;0.60;;
39522;SDS011;25202;51.216;6.806;2024-03-02T13:19:09;1.80;;;0.80;;
39522;SDS011;25202;51.216;6.806;2024-03-02T13:21:34;2.70;;;0.60;;
39522;SDS011;25202;51.216;6.806;2024-03-02T13:24:00;0.75;;;0.50;;
39522;SDS011;25202;51.216;6.806;2024-03-02T13:26:26;0.82;;;0.52;;
39522;SDS011;25202;51.216;6.806;2024-03-02T13:28:52;0.50;;;0.50;;
39522;SDS011;25202;51.216;6.806;2024-03-02T13:31:18;0.55;;;0.40;;
39522;SDS011;25202;51.216;6.806;2024-03-02T13:33:43;0.70;;;0.60;;
39522;SDS011;25202;51.216;6.806;2024-03-02T13:36:09;0.40;;;0.40;;
39522;SDS011;25202;51.216;6.806;2024-03-02T13:38:35;0.60;;;0.50;;
39522;SDS011;25202;51.216;6.806;2024-03-02T13:41:01;0.80;;;0.70;;
39522;SDS011;25202;51.216;6.806;2024-03-02T13:43:26;0.90;;;0.50;;
39522;SDS011;25202;51.216;6.806;2024-03-02T13:45:52;2.92;;;0.60;;
39522;SDS011;25202;51.216;6.806;2024-03-02T13:48:19;1.05;;;0.60;;
39522;SDS011;25202;51.216;6.806;2024-03-02T13:50:44;0.73;;;0.70;;
39522;SDS011;25202;51.216;6.806;2024-03-02T13:53:11;0.98;;;0.80;;
39522;SDS011;25202;51.216;6.806;2024-03-02T13:55:37;1.75;;;0.85;;
39522;SDS011;25202;51.216;6.806;2024-03-02T13:58:03;0.82;;;0.70;;
39522;SDS011;25202;51.216;6.806;2024-03-02T14:00:29;1.83;;;0.80;;
39522;SDS011;25202;51.216;6.806;2024-03-02T14:02:55;1.98;;;0.90;;
39522;SDS011;25202;51.216;6.806;2024-03-02T14:05:20;2.67;;;0.77;;
39522;SDS011;25202;51.216;6.806;2024-03-02T14:07:46;0.75;;;0.57;;
39522;SDS011;25202;51.216;6.806;2024-03-02T14:10:12;0.80;;;0.70;;
39522;SDS011;25202;51.216;6.806;2024-03-02T14:12:37;1.90;;;0.82;;
39522;SDS011;25202;51.216;6.806;2024-03-02T14:15:03;1.63;;;0.80;;
39522;SDS011;25202;51.216;6.806;2024-03-02T14:17:29;0.70;;;0.52;;
39522;SDS011;25202;51.216;6.806;2024-03-02T14:19:57;0.68;;;0.60;;
39522;SDS011;25202;51.216;6.806;2024-03-02T14:22:24;1.17;;;0.70;;
39522;SDS011;25202;51.216;6.806;2024-03-02T14:24:49;1.85;;;0.55;;
39522;SDS011;25202;51.216;6.806;2024-03-02T14:27:15;3.10;;;0.70;;
39522;SDS011;25202;51.216;6.806;2024-03-02T14:29:42;1.00;;;0.70;;
39522;SDS011;25202;51.216;6.806;2024-03-02T14:32:07;0.85;;;0.60;;
39522;SDS011;25202;51.216;6.806;2024-03-02T14:34:33;2.22;;;0.93;;
39522;SDS011;25202;51.216;6.806;2024-03-02T14:36:59;1.20;;;0.80;;
39522;SDS011;25202;51.216;6.806;2024-03-02T14:39:28;5.30;;;0.90;;
39522;SDS011;25202;51.216;6.806;2024-03-02T14:41:53;0.82;;;0.50;;
39522;SDS011;25202;51.216;6.806;2024-03-02T14:44:20;1.42;;;0.60;;
39522;SDS011;25202;51.216;6.806;2024-03-02T14:46:48;0.90;;;0.60;;
39522;SDS011;25202;51.216;6.806;2024-03-02T14:49:14;1.88;;;0.80;;
39522;SDS011;25202;51.216;6.806;2024-03-02T14:51:40;1.75;;;0.80;;